WetterOnline ( https://www.wetteronline.de )

Wetter aktuell Larderia

Aktuelles Wetter: Messina (51m)

6-stündlich | Neueste Meldungen
Ortszeit Temperatur Wetter
So, 19.01. 7:00 11.4° C wolkig
So, 19.01. 1:00 13.2° C wolkig
Sa, 18.01. 19:00 12.4° C Regen
Sa, 18.01. 13:00 15.0° C wolkig
Sa, 18.01. 7:00 13.0° C bewölkt
Sa, 18.01. 1:00 13.4° C bewölkt
Fr, 17.01. 19:00 13.6° C bewölkt
Fr, 17.01. 13:00 14.2° C bewölkt
Ortszeit Temperatur Wetter
So, 19.01. 7:00 11.4° C wolkig
So, 19.01. 6:55 11° C bewölkt
So, 19.01. 6:00 11.0° C bewölkt, nach Regen
So, 19.01. 5:55 11° C bewölkt
So, 19.01. 5:00 11.2° C leichter Regen
So, 19.01. 4:55 11° C leichter Regen
So, 19.01. 4:00 11.8° C leichter Regen
So, 19.01. 3:55 12° C leichter Regen
So, 19.01. 3:00 12.0° C leichter Regen
Ortszeit Relative Feuchte Sichtweite
So, 19.01. 7:00 79% 16 km
So, 19.01. 1:00 63% 10 km
Sa, 18.01. 19:00 92% 6 km
Sa, 18.01. 13:00 57% 20 km
Sa, 18.01. 7:00 70% 10 km
Sa, 18.01. 1:00 50% 16 km
Fr, 17.01. 19:00 53% 10 km
Fr, 17.01. 13:00 52% 20 km
Ortszeit Relative Feuchte Sichtweite
So, 19.01. 7:00 79% 16 km
So, 19.01. 6:55 82% >10 km
So, 19.01. 6:00 83% 10 km
So, 19.01. 5:55 82% >10 km
So, 19.01. 5:00 98% 4 km
So, 19.01. 4:55 100% 8 km
So, 19.01. 4:00 86% 4 km
So, 19.01. 3:55 88% 9 km
So, 19.01. 3:00 86% 4 km
Ortszeit Niederschlagsmenge Niederschlagsart
So, 19.01. 7:00 2 l/m2 in 12 Std. Regen
So, 19.01. 1:00 0.2 l/m2 in 6 Std. Regen
Sa, 18.01. 19:00 4 l/m2 in 12 Std. Regen
Sa, 18.01. 13:00 0.0 l/m2 in 6 Std. -
Sa, 18.01. 7:00 0.0 l/m2 in 12 Std. -
Sa, 18.01. 1:00 0.0 l/m2 in 6 Std. -
Fr, 17.01. 19:00 0.0 l/m2 in 12 Std. -
Fr, 17.01. 13:00 0.0 l/m2 in 6 Std. -
Ortszeit Niederschlagsmenge Niederschlagsart
So, 19.01. 7:00 keine Meldung -
So, 19.01. 6:55 keine Meldung -
So, 19.01. 6:00 keine Meldung -
So, 19.01. 5:55 keine Meldung -
So, 19.01. 5:00 keine Meldung -
So, 19.01. 4:55 keine Meldung -
So, 19.01. 4:00 keine Meldung -
So, 19.01. 3:55 keine Meldung -
So, 19.01. 3:00 keine Meldung -
Ortszeit Stärke Spitze Richtung
km/h Bft. km/h Grad Sektor
So, 19.01. 7:00 0 0 - - -
So, 19.01. 1:00 6 1 - 300° NW
Sa, 18.01. 19:00 11 2 - 320° NW
Sa, 18.01. 13:00 13 3 - 320° NW
Sa, 18.01. 7:00 6 1 - 310° NW
Sa, 18.01. 1:00 6 1 - 20° N
Fr, 17.01. 19:00 7 2 - 310° NW
Fr, 17.01. 13:00 11 2 - 330° NW
Ortszeit Stärke Spitze Richtung
km/h Bft. km/h Grad Sektor
So, 19.01. 7:00 0 0 - - -
So, 19.01. 6:55 0 0 - - -
So, 19.01. 6:00 4 1 - 360° N
So, 19.01. 5:55 4 1 - 360° N
So, 19.01. 5:00 0 0 - - -
So, 19.01. 4:55 0 0 - - -
So, 19.01. 4:00 0 0 - - -
So, 19.01. 3:55 0 0 - - -
So, 19.01. 3:00 0 0 - - -
Ortszeit Untergrenze Bedeckung Gattung
total tief tief mittel hoch
So, 19.01. 7:00 750 m 7/8 6/8 Cu As -
So, 19.01. 1:00 750 m 5/8 3/8 Sc As -
Sa, 18.01. 19:00 360 m 8/8 6/8 Cu Ns -
Sa, 18.01. 13:00 900 m 6/8 3/8 Sc As -
Sa, 18.01. 7:00 900 m 7/8 3/8 Sc As -
Sa, 18.01. 1:00 900 m 7/8 4/8 Sc As -
Fr, 17.01. 19:00 900 m 7/8 4/8 Sc As -
Fr, 17.01. 13:00 1050 m 7/8 5/8 Sc As -
Ortszeit Bedeckungsgrad in Achtel und Wolkenuntergrenze
So, 19.01. 7:00 2(750m) 5(900m)
So, 19.01. 6:55 1-2(750m) 5-7(900m)
So, 19.01. 6:00 2(600m) 5(900m) 7(2400m)
So, 19.01. 5:55 1-2(600m) 5-7(900m)
So, 19.01. 5:00 2(600m) 5(900m) 7(2400m)
So, 19.01. 4:55 1-2(600m) 5-7(900m)
So, 19.01. 4:00 2(600m) 5(900m) 7(2400m)
So, 19.01. 3:55 1-2(600m) 5-7(900m)
So, 19.01. 3:00 2(600m) 5(900m) 7(2400m)
Ortszeit Luftdruck NN (hPa) Tendenz (hPa in 3 Std.)
So, 19.01. 7:00 1022 - 0,3
So, 19.01. 1:00 1022 - 0,3
Sa, 18.01. 19:00 1023 + 0,4
Sa, 18.01. 13:00 1024 - 0,7
Sa, 18.01. 7:00 1025 - 0,6
Sa, 18.01. 1:00 1026 0,0
Fr, 17.01. 19:00 1026 + 0,5
Fr, 17.01. 13:00 1027 - 0,1
Ortszeit Luftdruck NN (hPa) Tendenz (hPa in 3 Std.)
So, 19.01. 7:00 1022 - 0,3
So, 19.01. 6:55 1021 keine Meldung
So, 19.01. 6:00 1022 - 0,7
So, 19.01. 5:55 1021 keine Meldung
So, 19.01. 5:00 1022 - 0,4
So, 19.01. 4:55 1021 keine Meldung
So, 19.01. 4:00 1022 - 0,5
So, 19.01. 3:55 1021 keine Meldung
So, 19.01. 3:00 1022 - 0,2
Ortszeit Schneehöhe (cm)
So, 19.01. 7:00 0
So, 19.01. 1:00 -
Sa, 18.01. 19:00 -
Sa, 18.01. 13:00 -
Sa, 18.01. 7:00 -
Sa, 18.01. 1:00 -
Fr, 17.01. 19:00 -
Fr, 17.01. 13:00 -
Ortszeit Schneehöhe (cm)
So, 19.01. 7:00 0
So, 19.01. 6:55 -
So, 19.01. 6:00 -
So, 19.01. 5:55 -
So, 19.01. 5:00 -
So, 19.01. 4:55 -
So, 19.01. 4:00 -
So, 19.01. 3:55 -
So, 19.01. 3:00 -
Link zu dieser Seite / Seite empfehlen

Das Wetter in ...